createdAt,value
2018-11-29T00:00:34.269Z,2.60
2018-11-29T00:03:02.826Z,2.50
2018-11-29T00:05:31.523Z,2.60
2018-11-29T00:08:00.128Z,2.50
2018-11-29T00:10:28.799Z,2.50
2018-11-29T00:12:57.314Z,2.40
2018-11-29T00:15:25.872Z,2.40
2018-11-29T00:17:54.400Z,2.40
2018-11-29T00:20:22.912Z,2.30
2018-11-29T00:22:51.816Z,2.40
2018-11-29T00:25:20.967Z,2.40
2018-11-29T00:27:49.491Z,2.40
2018-11-29T00:30:23.162Z,2.40
2018-11-29T00:32:52.700Z,2.40
2018-11-29T00:35:21.202Z,2.40
2018-11-29T00:37:49.857Z,2.50
2018-11-29T00:40:21.200Z,2.50
2018-11-29T00:42:50.533Z,2.70
2018-11-29T00:45:21.580Z,2.70
2018-11-29T00:47:50.954Z,2.80
2018-11-29T00:50:20.119Z,2.70
2018-11-29T00:52:49.364Z,2.80
2018-11-29T00:55:18.950Z,3.00
2018-11-29T00:57:47.514Z,3.00
2018-11-29T01:00:19.019Z,2.90
2018-11-29T01:02:47.556Z,3.00
2018-11-29T01:05:16.184Z,3.00
2018-11-29T01:07:44.873Z,3.00
2018-11-29T01:10:14.118Z,2.90
2018-11-29T01:12:42.940Z,2.90
2018-11-29T01:15:16.182Z,2.80
2018-11-29T01:17:45.525Z,2.80
2018-11-29T01:20:15.053Z,2.70
2018-11-29T01:22:43.662Z,2.70
2018-11-29T01:25:14.931Z,2.70
2018-11-29T01:27:44.710Z,2.60
2018-11-29T01:30:15.137Z,2.50
2018-11-29T01:32:43.671Z,2.50
2018-11-29T01:35:13.943Z,2.50
2018-11-29T01:37:42.671Z,2.50
2018-11-29T01:40:16.132Z,2.50
2018-11-29T01:42:45.899Z,2.50
2018-11-29T01:45:15.549Z,2.50
2018-11-29T01:47:44.033Z,2.50
2018-11-29T01:50:13.042Z,2.40
2018-11-29T01:52:41.514Z,2.40
2018-11-29T01:55:10.512Z,2.40
2018-11-29T01:57:39.818Z,2.40
2018-11-29T02:00:16.714Z,2.30
2018-11-29T02:02:48.320Z,2.20
2018-11-29T02:05:16.926Z,2.30
2018-11-29T02:07:45.430Z,2.30
2018-11-29T02:10:26.166Z,2.20
2018-11-29T02:12:55.407Z,2.20
2018-11-29T02:15:23.994Z,2.20
2018-11-29T02:17:53.021Z,2.20
2018-11-29T02:20:21.577Z,2.20
2018-11-29T02:22:50.061Z,2.20
2018-11-29T02:25:18.703Z,2.20
2018-11-29T02:27:47.181Z,2.20
2018-11-29T02:30:20.073Z,2.10
2018-11-29T02:32:48.697Z,2.00
2018-11-29T02:35:17.455Z,2.00
2018-11-29T02:37:45.908Z,2.00
2018-11-29T02:40:16.276Z,2.00
2018-11-29T02:42:44.974Z,2.00
2018-11-29T02:45:17.888Z,1.90
2018-11-29T02:47:47.018Z,1.80
2018-11-29T02:50:15.686Z,1.80
2018-11-29T02:52:44.203Z,1.70
2018-11-29T02:55:13.159Z,1.70
2018-11-29T02:57:42.721Z,1.60
2018-11-29T03:00:19.726Z,1.60
2018-11-29T03:02:48.842Z,0.70
2018-11-29T03:05:17.891Z,1.50
2018-11-29T03:07:47.161Z,1.50
2018-11-29T03:10:19.936Z,1.50
2018-11-29T03:12:48.570Z,1.40
2018-11-29T03:15:17.039Z,1.40
2018-11-29T03:17:45.545Z,1.40
2018-11-29T03:20:14.656Z,1.30
2018-11-29T03:22:43.295Z,1.40
2018-11-29T03:25:15.482Z,1.40
2018-11-29T03:27:44.528Z,1.40
2018-11-29T03:30:13.979Z,1.40
2018-11-29T03:32:42.458Z,1.40
2018-11-29T03:35:12.511Z,1.40
2018-11-29T03:37:41.028Z,1.30
2018-11-29T03:40:11.702Z,1.40
2018-11-29T03:42:40.322Z,1.40
2018-11-29T03:45:10.464Z,1.40
2018-11-29T03:47:39.041Z,1.40
2018-11-29T03:50:09.406Z,1.40
2018-11-29T03:52:37.987Z,1.30
2018-11-29T03:55:07.538Z,1.40
2018-11-29T03:57:36.686Z,1.40
2018-11-29T04:00:07.221Z,1.40
2018-11-29T04:02:35.658Z,1.40
2018-11-29T04:05:04.427Z,1.30
2018-11-29T04:07:32.959Z,1.30
2018-11-29T04:10:01.487Z,1.30
2018-11-29T04:12:30.111Z,1.30
2018-11-29T04:14:58.684Z,1.30
2018-11-29T04:17:27.206Z,1.30
2018-11-29T04:19:55.660Z,1.30
2018-11-29T04:22:24.165Z,1.30
2018-11-29T04:24:52.668Z,1.30
2018-11-29T04:27:21.199Z,1.20
2018-11-29T04:29:50.473Z,1.20
2018-11-29T04:32:19.045Z,1.10
2018-11-29T04:34:47.552Z,1.10
2018-11-29T04:37:16.158Z,1.00
2018-11-29T04:39:44.674Z,1.00
2018-11-29T04:42:13.809Z,0.90
2018-11-29T04:44:43.075Z,0.90
2018-11-29T04:47:11.605Z,0.80
2018-11-29T04:49:40.113Z,0.80
2018-11-29T04:52:08.663Z,0.80
2018-11-29T04:54:37.171Z,0.70
2018-11-29T04:57:05.725Z,0.70
2018-11-29T04:59:34.889Z,0.60
2018-11-29T05:02:03.526Z,0.60
2018-11-29T05:04:32.853Z,0.40
2018-11-29T05:07:01.425Z,0.40
2018-11-29T05:09:29.930Z,0.40
2018-11-29T05:11:59.212Z,0.40
2018-11-29T05:14:27.765Z,0.50
2018-11-29T05:16:56.250Z,0.50
2018-11-29T05:19:25.430Z,0.40
2018-11-29T05:21:54.192Z,0.40
2018-11-29T05:24:22.717Z,0.40
2018-11-29T05:26:51.236Z,0.30
2018-11-29T05:29:19.755Z,0.30
2018-11-29T05:31:48.280Z,0.20
2018-11-29T05:34:16.899Z,0.10
2018-11-29T05:36:45.440Z,0.00
2018-11-29T05:39:14.022Z,0.00
2018-11-29T05:41:42.614Z,0.00
2018-11-29T05:44:11.157Z,-0.10
2018-11-29T05:46:39.762Z,-0.10
2018-11-29T05:49:08.333Z,-0.20
2018-11-29T05:51:37.550Z,-0.20
2018-11-29T05:54:06.438Z,-0.20
2018-11-29T05:56:34.937Z,-0.30
2018-11-29T05:59:03.541Z,-0.30
2018-11-29T06:01:38.374Z,-0.40
2018-11-29T06:04:07.007Z,-0.40
2018-11-29T06:06:35.517Z,-0.40
2018-11-29T06:09:06.182Z,-0.40
2018-11-29T06:11:34.763Z,-0.40
2018-11-29T06:14:03.267Z,-0.40
2018-11-29T06:16:31.779Z,-0.40
2018-11-29T06:19:00.846Z,-0.40
2018-11-29T06:21:30.008Z,-0.50
2018-11-29T06:23:58.507Z,-0.50
2018-11-29T06:26:27.045Z,-0.60
2018-11-29T06:28:55.581Z,-0.50
2018-11-29T06:31:24.101Z,-0.50
2018-11-29T06:33:53.018Z,-0.50
2018-11-29T06:36:21.525Z,-0.60
2018-11-29T06:38:50.233Z,-0.60
2018-11-29T06:41:18.794Z,-0.60
2018-11-29T06:43:47.330Z,-0.60
2018-11-29T06:46:15.862Z,-0.60
2018-11-29T06:48:44.506Z,-0.50
2018-11-29T06:51:13.036Z,-0.40
2018-11-29T06:53:46.766Z,-0.50
2018-11-29T06:56:15.388Z,-0.40
2018-11-29T06:58:43.938Z,-0.30
2018-11-29T07:01:12.582Z,-0.30
2018-11-29T07:03:41.148Z,-0.40
2018-11-29T07:06:10.607Z,-0.40
2018-11-29T07:08:39.419Z,-0.40
2018-11-29T07:11:08.181Z,-0.30
2018-11-29T07:13:36.754Z,-0.40
2018-11-29T07:16:05.564Z,-0.40
2018-11-29T07:18:34.138Z,-0.30
2018-11-29T07:21:14.101Z,-0.30
2018-11-29T07:23:42.587Z,-0.30
2018-11-29T07:26:11.834Z,-0.30
2018-11-29T07:28:41.160Z,-0.30
2018-11-29T07:31:09.694Z,-0.20
2018-11-29T07:33:38.232Z,-0.10
2018-11-29T07:36:06.884Z,0.00
2018-11-29T07:38:35.446Z,0.10
2018-11-29T07:41:04.060Z,0.10
2018-11-29T07:43:32.611Z,0.20
2018-11-29T07:46:01.190Z,0.30
2018-11-29T07:48:29.876Z,0.30
2018-11-29T07:50:58.631Z,0.40
2018-11-29T07:53:27.238Z,0.50
2018-11-29T07:55:55.861Z,0.60
2018-11-29T07:58:24.655Z,0.60
2018-11-29T08:00:53.307Z,0.70
2018-11-29T08:03:21.853Z,0.80
2018-11-29T08:05:50.544Z,0.80
2018-11-29T08:08:19.734Z,0.80
2018-11-29T08:10:48.378Z,0.90
2018-11-29T08:13:17.011Z,1.00
2018-11-29T08:15:45.554Z,1.10
2018-11-29T08:18:14.257Z,1.20
2018-11-29T08:20:42.781Z,1.20
2018-11-29T08:23:11.334Z,1.30
2018-11-29T08:25:39.949Z,1.40
2018-11-29T08:28:08.535Z,1.50
2018-11-29T08:30:37.088Z,1.50
2018-11-29T08:33:05.622Z,1.50
2018-11-29T08:35:34.125Z,1.60
2018-11-29T08:38:03.654Z,1.60
2018-11-29T08:40:31.320Z,1.70
2018-11-29T08:42:59.991Z,1.80
2018-11-29T08:45:28.585Z,1.80
2018-11-29T08:47:57.233Z,1.90
2018-11-29T08:50:26.683Z,1.90
2018-11-29T08:52:55.322Z,2.00
2018-11-29T08:55:24.043Z,2.10
2018-11-29T08:57:52.657Z,2.20
2018-11-29T09:00:21.998Z,2.30
2018-11-29T09:02:50.762Z,2.30
2018-11-29T09:05:19.379Z,2.30
2018-11-29T09:07:48.721Z,2.40
2018-11-29T09:10:22.457Z,2.50
2018-11-29T09:12:51.129Z,2.70
2018-11-29T09:15:19.773Z,2.70
2018-11-29T09:17:49.058Z,2.80
2018-11-29T09:20:22.128Z,2.80
2018-11-29T09:22:50.734Z,2.90
2018-11-29T09:25:22.920Z,2.90
2018-11-29T09:27:51.749Z,3.00
2018-11-29T09:30:21.321Z,3.10
2018-11-29T09:32:51.259Z,3.20
2018-11-29T09:35:19.830Z,3.30
2018-11-29T09:37:48.377Z,3.30
2018-11-29T09:40:17.839Z,3.40
2018-11-29T09:42:46.860Z,3.40
2018-11-29T09:45:19.296Z,3.60
2018-11-29T09:47:50.990Z,3.70
2018-11-29T09:50:19.582Z,3.80
2018-11-29T09:52:48.179Z,3.90
2018-11-29T09:55:18.092Z,4.00
2018-11-29T09:57:47.671Z,4.00
2018-11-29T10:00:27.086Z,4.10
2018-11-29T10:02:53.103Z,4.20
2018-11-29T10:05:21.654Z,4.40
2018-11-29T10:07:50.750Z,4.40
2018-11-29T10:10:19.318Z,4.40
2018-11-29T10:12:47.825Z,4.60
2018-11-29T10:15:16.468Z,4.70
2018-11-29T10:17:45.017Z,4.80
2018-11-29T10:20:14.355Z,4.90
2018-11-29T10:22:43.360Z,4.90
2018-11-29T10:25:13.746Z,5.00
2018-11-29T10:27:44.553Z,5.10
2018-11-29T10:30:15.279Z,5.30
2018-11-29T10:32:44.355Z,5.40
2018-11-29T10:35:12.901Z,5.50
2018-11-29T10:37:41.360Z,5.60
2018-11-29T10:40:10.939Z,5.70
2018-11-29T10:42:39.449Z,5.80
2018-11-29T10:45:11.503Z,5.90
2018-11-29T10:47:40.693Z,6.10
2018-11-29T10:50:12.680Z,6.20
2018-11-29T10:52:41.224Z,6.30
2018-11-29T10:55:11.580Z,6.40
2018-11-29T10:57:41.066Z,6.50
2018-11-29T11:00:21.121Z,6.60
2018-11-29T11:02:55.199Z,6.60
2018-11-29T11:05:24.611Z,6.60
2018-11-29T11:07:53.255Z,6.70
2018-11-29T11:10:21.808Z,6.70
2018-11-29T11:12:50.674Z,6.80
2018-11-29T11:15:19.399Z,6.80
2018-11-29T11:17:48.544Z,6.80
2018-11-29T11:20:17.161Z,6.90
2018-11-29T11:22:45.894Z,6.90
2018-11-29T11:25:14.444Z,7.00
2018-11-29T11:27:43.129Z,7.00
2018-11-29T11:30:18.979Z,7.00
2018-11-29T11:32:50.194Z,7.10
2018-11-29T11:35:18.812Z,7.10
2018-11-29T11:37:47.367Z,7.10
2018-11-29T11:40:16.710Z,7.10
2018-11-29T11:42:46.153Z,7.10
2018-11-29T11:45:16.614Z,7.20
2018-11-29T11:47:45.291Z,7.20
2018-11-29T11:50:18.821Z,7.30
2018-11-29T11:52:47.397Z,7.40
2018-11-29T11:55:18.895Z,7.40
2018-11-29T11:57:45.559Z,7.40
2018-11-29T12:00:16.292Z,7.50
2018-11-29T12:02:45.011Z,7.40
2018-11-29T12:05:13.526Z,7.50
2018-11-29T12:07:42.025Z,7.60
2018-11-29T12:10:12.871Z,7.60
2018-11-29T12:12:41.373Z,7.60
2018-11-29T12:15:16.694Z,7.60
2018-11-29T12:17:46.414Z,7.70
2018-11-29T12:20:16.926Z,7.70
2018-11-29T12:22:46.289Z,7.70
2018-11-29T12:25:17.918Z,7.80
2018-11-29T12:27:46.455Z,7.80
2018-11-29T12:30:27.947Z,7.80
2018-11-29T12:32:59.236Z,7.70
2018-11-29T12:35:27.758Z,7.70
2018-11-29T12:37:57.013Z,7.70
2018-11-29T12:40:25.624Z,7.70
2018-11-29T12:42:54.187Z,7.70
2018-11-29T12:45:22.842Z,7.70
2018-11-29T12:47:51.332Z,7.80
2018-11-29T12:50:22.091Z,7.70
2018-11-29T12:52:50.657Z,7.80
2018-11-29T12:55:20.281Z,7.70
2018-11-29T12:58:04.684Z,7.80
2018-11-29T13:00:18.803Z,7.80
2018-11-29T13:03:02.269Z,7.80
2018-11-29T13:05:34.011Z,7.70
2018-11-29T13:08:02.568Z,7.70
2018-11-29T13:10:31.119Z,7.70
2018-11-29T13:12:59.712Z,7.70
2018-11-29T13:15:30.358Z,7.70
2018-11-29T13:17:59.877Z,7.80
2018-11-29T13:20:32.470Z,7.70
2018-11-29T13:22:56.989Z,7.70
2018-11-29T13:25:26.597Z,7.60
2018-11-29T13:27:55.224Z,7.60
2018-11-29T13:30:24.367Z,7.60
2018-11-29T13:32:56.928Z,7.50
2018-11-29T13:35:33.456Z,7.50
2018-11-29T13:38:11.563Z,7.50
2018-11-29T13:40:40.929Z,7.50
2018-11-29T13:43:09.521Z,7.40
2018-11-29T13:45:38.123Z,7.40
2018-11-29T13:48:08.415Z,7.40
2018-11-29T13:50:37.841Z,7.40
2018-11-29T13:53:06.571Z,7.30
2018-11-29T13:55:35.308Z,7.30
2018-11-29T13:58:03.707Z,7.30
2018-11-29T14:00:32.290Z,7.30
2018-11-29T14:03:02.822Z,7.30
2018-11-29T14:05:31.341Z,7.30
2018-11-29T14:07:59.917Z,7.20
2018-11-29T14:10:28.490Z,7.20
2018-11-29T14:12:57.068Z,7.20
2018-11-29T14:15:27.983Z,7.20
2018-11-29T14:17:56.587Z,7.20
2018-11-29T14:20:25.327Z,7.20
2018-11-29T14:22:54.559Z,7.10
2018-11-29T14:25:23.266Z,7.10
2018-11-29T14:27:56.123Z,7.00
2018-11-29T14:30:25.910Z,7.00
2018-11-29T14:32:55.721Z,7.00
2018-11-29T14:35:24.382Z,6.90
2018-11-29T14:37:52.905Z,6.90
2018-11-29T14:40:24.781Z,6.80
2018-11-29T14:42:53.347Z,6.80
2018-11-29T14:45:22.837Z,6.70
2018-11-29T14:47:51.657Z,6.70
2018-11-29T14:50:30.425Z,6.60
2018-11-29T14:52:59.921Z,6.60
2018-11-29T14:55:28.533Z,6.60
2018-11-29T14:57:57.125Z,6.50
2018-11-29T15:00:25.769Z,6.50
2018-11-29T15:02:54.889Z,6.50
2018-11-29T15:05:25.706Z,6.40
2018-11-29T15:07:54.320Z,6.40
2018-11-29T15:10:22.871Z,6.40
2018-11-29T15:12:51.584Z,6.40
2018-11-29T15:15:20.183Z,6.50
2018-11-29T15:17:49.648Z,6.40
2018-11-29T15:20:21.709Z,6.40
2018-11-29T15:22:50.294Z,6.30
2018-11-29T15:25:18.904Z,6.30
2018-11-29T15:27:47.565Z,6.30
2018-11-29T15:30:17.377Z,6.20
2018-11-29T15:32:46.527Z,6.20
2018-11-29T15:35:15.182Z,6.10
2018-11-29T15:37:43.846Z,6.00
2018-11-29T15:40:14.374Z,6.00
2018-11-29T15:42:43.026Z,5.90
2018-11-29T15:45:13.720Z,5.90
2018-11-29T15:47:42.543Z,5.80
2018-11-29T15:50:13.236Z,5.80
2018-11-29T15:52:41.884Z,5.70
2018-11-29T15:55:18.015Z,5.60
2018-11-29T15:57:47.526Z,5.50
2018-11-29T16:00:21.317Z,5.50
2018-11-29T16:02:50.801Z,5.50
2018-11-29T16:05:19.469Z,5.40
2018-11-29T16:07:47.983Z,5.30
2018-11-29T16:10:17.903Z,5.30
2018-11-29T16:12:46.612Z,5.20
2018-11-29T16:15:16.410Z,5.10
2018-11-29T16:17:45.607Z,5.00
2018-11-29T16:20:19.444Z,4.90
2018-11-29T16:22:48.719Z,4.80
2018-11-29T16:25:17.306Z,4.80
2018-11-29T16:27:46.387Z,4.70
2018-11-29T16:30:49.638Z,4.70
2018-11-29T16:33:20.621Z,4.60
2018-11-29T16:35:49.299Z,4.50
2018-11-29T16:38:18.040Z,4.40
2018-11-29T16:40:47.355Z,4.30
2018-11-29T16:43:16.075Z,4.20
2018-11-29T16:45:44.757Z,4.10
2018-11-29T16:48:13.938Z,4.10
2018-11-29T16:50:42.562Z,3.90
2018-11-29T16:53:11.249Z,3.80
2018-11-29T16:55:39.815Z,3.70
2018-11-29T16:58:12.759Z,3.60
2018-11-29T17:00:41.462Z,3.50
2018-11-29T17:03:10.144Z,3.40
2018-11-29T17:05:38.720Z,3.30
2018-11-29T17:08:07.538Z,3.20
2018-11-29T17:10:36.653Z,3.10
2018-11-29T17:13:07.952Z,3.00
2018-11-29T17:15:36.691Z,3.00
2018-11-29T17:18:05.558Z,2.80
2018-11-29T17:20:34.539Z,2.80
2018-11-29T17:23:03.253Z,2.70
2018-11-29T17:25:31.792Z,2.70
2018-11-29T17:28:00.432Z,2.60
2018-11-29T17:30:29.180Z,2.50
2018-11-29T17:32:58.969Z,2.30
2018-11-29T17:35:28.450Z,2.20
2018-11-29T17:37:58.454Z,2.10
2018-11-29T17:40:27.348Z,2.10
2018-11-29T17:42:56.910Z,2.00
2018-11-29T17:45:26.707Z,1.90
2018-11-29T17:47:58.401Z,1.90
2018-11-29T17:50:29.603Z,1.80
2018-11-29T17:52:58.180Z,1.80
2018-11-29T17:55:27.804Z,1.90
2018-11-29T17:57:56.553Z,1.80
2018-11-29T18:00:26.628Z,1.90
2018-11-29T18:02:55.543Z,2.00
2018-11-29T18:05:24.264Z,2.00
2018-11-29T18:07:53.579Z,2.00
2018-11-29T18:10:23.489Z,2.00
2018-11-29T18:12:53.642Z,2.10
2018-11-29T18:15:25.724Z,2.10
2018-11-29T18:17:54.379Z,2.10
2018-11-29T18:20:23.003Z,2.10
2018-11-29T18:22:52.385Z,2.10
2018-11-29T18:25:21.200Z,2.10
2018-11-29T18:27:50.949Z,2.00
2018-11-29T18:30:20.561Z,1.90
2018-11-29T18:32:49.240Z,1.80
2018-11-29T18:35:17.900Z,1.70
2018-11-29T18:37:46.730Z,1.70
2018-11-29T18:40:18.564Z,1.80
2018-11-29T18:42:50.993Z,1.80
2018-11-29T18:45:20.031Z,1.80
2018-11-29T18:47:49.950Z,1.70
2018-11-29T18:50:26.064Z,1.70
2018-11-29T18:52:54.820Z,1.60
2018-11-29T18:55:24.682Z,1.40
2018-11-29T18:57:54.034Z,1.20
2018-11-29T19:00:31.122Z,1.20
2018-11-29T19:02:59.926Z,1.10
2018-11-29T19:05:28.564Z,1.10
2018-11-29T19:07:57.320Z,1.10
2018-11-29T19:10:26.095Z,1.00
2018-11-29T19:13:00.581Z,0.90
2018-11-29T19:15:29.322Z,0.80
2018-11-29T19:17:58.090Z,0.80
2018-11-29T19:20:26.727Z,0.70
2018-11-29T19:22:56.173Z,0.60
2018-11-29T19:25:24.818Z,0.60
2018-11-29T19:27:53.443Z,0.60
2018-11-29T19:30:24.641Z,0.70
2018-11-29T19:33:07.772Z,0.70
2018-11-29T19:35:36.636Z,0.70
2018-11-29T19:38:05.893Z,0.80
2018-11-29T19:40:34.561Z,0.80
2018-11-29T19:43:03.431Z,0.80
2018-11-29T19:45:32.133Z,0.80
2018-11-29T19:48:00.925Z,0.90
2018-11-29T19:50:29.726Z,0.90
2018-11-29T19:52:59.574Z,1.00
2018-11-29T19:55:29.838Z,1.00
2018-11-29T19:57:58.712Z,1.20
2018-11-29T20:00:27.446Z,1.30
2018-11-29T20:02:56.978Z,1.30
2018-11-29T20:05:26.501Z,1.40
2018-11-29T20:07:55.357Z,1.40
2018-11-29T20:10:24.024Z,1.40
2018-11-29T20:12:59.991Z,1.40
2018-11-29T20:15:29.075Z,1.40
2018-11-29T20:17:58.652Z,1.40
2018-11-29T20:20:27.407Z,1.30
2018-11-29T20:22:56.254Z,1.30
2018-11-29T20:25:26.216Z,1.30
2018-11-29T20:27:55.373Z,1.30
2018-11-29T20:30:24.559Z,1.20
2018-11-29T20:32:54.485Z,1.20
2018-11-29T20:35:23.397Z,1.10
2018-11-29T20:37:53.628Z,1.20
2018-11-29T20:40:26.395Z,1.10
2018-11-29T20:42:56.526Z,1.00
2018-11-29T20:45:27.551Z,1.00
2018-11-29T20:47:56.236Z,1.00
2018-11-29T20:50:27.219Z,0.90
2018-11-29T20:52:57.524Z,0.90
2018-11-29T20:55:28.477Z,0.80
2018-11-29T20:57:57.268Z,0.80
2018-11-29T21:00:26.017Z,0.80
2018-11-29T21:02:54.711Z,0.70
2018-11-29T21:05:24.491Z,0.60
2018-11-29T21:07:56.679Z,0.50
2018-11-29T21:10:26.134Z,0.50
2018-11-29T21:12:55.765Z,0.40
2018-11-29T21:15:24.451Z,0.30
2018-11-29T21:17:53.184Z,0.20
2018-11-29T21:20:22.105Z,0.20
2018-11-29T21:22:51.629Z,0.10
2018-11-29T21:25:25.228Z,0.10
2018-11-29T21:27:54.089Z,0.00
2018-11-29T21:30:22.834Z,0.00
2018-11-29T21:32:51.606Z,-0.10
2018-11-29T21:35:21.603Z,-0.20
2018-11-29T21:37:51.276Z,-0.30
2018-11-29T21:40:26.591Z,-0.30
2018-11-29T21:42:55.357Z,-0.20
2018-11-29T21:45:24.480Z,-0.30
2018-11-29T21:47:53.212Z,-0.30
2018-11-29T21:50:22.032Z,-0.30
2018-11-29T21:52:50.897Z,-0.30
2018-11-29T21:55:19.642Z,-0.40
2018-11-29T21:57:48.835Z,-0.30
2018-11-29T22:00:19.807Z,-0.40
2018-11-29T22:02:52.626Z,-0.40
2018-11-29T22:05:21.228Z,-0.50
2018-11-29T22:07:49.803Z,-0.50
2018-11-29T22:10:18.609Z,-0.50
2018-11-29T22:12:47.308Z,-0.50
2018-11-29T22:15:15.939Z,-0.50
2018-11-29T22:17:50.584Z,-0.50
2018-11-29T22:20:19.182Z,-0.60
2018-11-29T22:22:47.782Z,-0.60
2018-11-29T22:25:16.358Z,-0.70
2018-11-29T22:27:44.936Z,-0.80
2018-11-29T22:30:13.508Z,-0.80
2018-11-29T22:32:42.854Z,-0.80
2018-11-29T22:35:11.394Z,-0.80
2018-11-29T22:37:40.033Z,-0.80
2018-11-29T22:40:09.043Z,-0.80
2018-11-29T22:42:37.694Z,-0.80
2018-11-29T22:45:07.638Z,-0.70
2018-11-29T22:47:36.186Z,-0.70
2018-11-29T22:50:05.283Z,-0.80
2018-11-29T22:52:33.785Z,-0.80
2018-11-29T22:55:02.331Z,-0.80
2018-11-29T22:57:30.900Z,-0.90
2018-11-29T22:59:59.527Z,-1.00
2018-11-29T23:02:28.038Z,-1.10
2018-11-29T23:04:56.645Z,-1.10
2018-11-29T23:07:25.159Z,-1.00
2018-11-29T23:09:53.847Z,-1.00
2018-11-29T23:12:24.424Z,-1.10
2018-11-29T23:14:53.940Z,-1.10
2018-11-29T23:17:22.447Z,-1.20
2018-11-29T23:19:51.717Z,-1.20
2018-11-29T23:22:21.246Z,-1.20
2018-11-29T23:24:50.511Z,-1.20
2018-11-29T23:27:19.008Z,-1.10
2018-11-29T23:29:47.555Z,-1.20
2018-11-29T23:32:16.118Z,-1.30
2018-11-29T23:34:45.219Z,-1.30
2018-11-29T23:37:13.949Z,-1.30
2018-11-29T23:39:42.498Z,-1.30
2018-11-29T23:42:11.126Z,-1.30
2018-11-29T23:44:39.653Z,-1.30
2018-11-29T23:47:08.254Z,-1.30
2018-11-29T23:49:36.764Z,-1.30
2018-11-29T23:52:05.993Z,-1.40
2018-11-29T23:54:35.249Z,-1.40
2018-11-29T23:57:03.867Z,-1.50
2018-11-29T23:59:32.383Z,-1.50
